createdAt,value
2023-04-02T00:02:33.142Z,101243.13
2023-04-02T00:05:51.352Z,101257.88
2023-04-02T00:08:23.452Z,101260.72
2023-04-02T00:10:52.616Z,101274.50
2023-04-02T00:13:26.914Z,101275.47
2023-04-02T00:15:58.817Z,101269.69
2023-04-02T00:18:28.179Z,101278.94
2023-04-02T00:21:05.154Z,101276.06
2023-04-02T00:23:32.935Z,101279.06
2023-04-02T00:26:00.727Z,101288.06
2023-04-02T00:28:28.427Z,101279.81
2023-04-02T00:31:00.587Z,101286.56
2023-04-02T00:33:32.466Z,101285.28
2023-04-02T00:36:00.268Z,101286.28
2023-04-02T00:38:31.046Z,101285.28
2023-04-02T00:41:01.558Z,101290.09
2023-04-02T00:43:33.074Z,101287.72
2023-04-02T00:46:05.081Z,101295.69
2023-04-02T00:48:42.508Z,101289.50
2023-04-02T00:51:17.223Z,101293.09
2023-04-02T00:53:47.693Z,101290.03
2023-04-02T00:56:20.628Z,101299.03
2023-04-02T00:58:53.175Z,101297.13
2023-04-02T01:01:26.276Z,101296.06
2023-04-02T01:03:58.351Z,101309.13
2023-04-02T01:06:31.116Z,101305.03
2023-04-02T01:09:11.579Z,101304.13
2023-04-02T01:12:04.055Z,101310.22
2023-04-02T01:14:45.318Z,101307.09
2023-04-02T01:17:31.857Z,101318.09
2023-04-02T01:20:24.314Z,101316.28
2023-04-02T01:22:57.930Z,101322.28
2023-04-02T01:25:31.147Z,101328.84
2023-04-02T01:28:07.912Z,101321.94
2023-04-02T01:30:38.399Z,101332.56
2023-04-02T01:33:07.809Z,101326.56
2023-04-02T01:35:42.491Z,101338.31
2023-04-02T01:38:15.351Z,101336.47
2023-04-02T01:40:51.903Z,101333.47
2023-04-02T01:43:24.817Z,101337.53
2023-04-02T01:45:54.065Z,101351.06
2023-04-02T01:48:27.364Z,101344.81
2023-04-02T01:50:58.738Z,101343.69
2023-04-02T01:53:30.440Z,101346.47
2023-04-02T01:56:00.734Z,101339.91
2023-04-02T01:58:31.708Z,101334.78
2023-04-02T02:01:03.163Z,101332.50
2023-04-02T02:03:31.570Z,101332.00
2023-04-02T02:06:00.788Z,101339.91
2023-04-02T02:08:38.374Z,101333.66
2023-04-02T02:11:08.700Z,101329.69
2023-04-02T02:13:37.312Z,101324.16
2023-04-02T02:16:12.775Z,101325.09
2023-04-02T02:18:40.863Z,101329.47
2023-04-02T02:21:11.030Z,101336.53
2023-04-02T02:23:38.735Z,101325.19
2023-04-02T02:26:07.816Z,101332.19
2023-04-02T02:28:40.959Z,101333.00
2023-04-02T02:31:17.746Z,101343.56
2023-04-02T02:33:50.358Z,101346.69
2023-04-02T02:36:26.130Z,101352.06
2023-04-02T02:38:59.046Z,101354.88
2023-04-02T02:41:34.826Z,101345.84
2023-04-02T02:44:11.251Z,101353.56
2023-04-02T02:46:45.459Z,101360.66
2023-04-02T02:49:17.363Z,101366.31
2023-04-02T02:51:49.225Z,101361.59
2023-04-02T02:54:19.801Z,101363.88
2023-04-02T02:56:55.430Z,101369.34
2023-04-02T02:59:24.784Z,101371.66
2023-04-02T03:01:54.867Z,101370.94
2023-04-02T03:04:24.201Z,101372.50
2023-04-02T03:06:53.744Z,101381.28
2023-04-02T03:09:31.267Z,101382.63
2023-04-02T03:12:05.294Z,101376.50
2023-04-02T03:14:37.930Z,101394.22
2023-04-02T03:17:13.822Z,101393.94
2023-04-02T03:19:48.587Z,101397.91
2023-04-02T03:22:22.332Z,101401.09
2023-04-02T03:24:54.973Z,101403.19
2023-04-02T03:27:27.329Z,101406.28
2023-04-02T03:30:05.189Z,101411.84
2023-04-02T03:32:38.591Z,101415.75
2023-04-02T03:35:17.820Z,101418.09
2023-04-02T03:37:49.278Z,101419.59
2023-04-02T03:40:21.384Z,101422.47
2023-04-02T03:42:52.310Z,101416.13
2023-04-02T03:45:24.122Z,101424.38
2023-04-02T03:47:57.522Z,101422.56
2023-04-02T03:50:27.738Z,101431.94
2023-04-02T03:52:55.548Z,101433.41
2023-04-02T03:55:28.784Z,101434.66
2023-04-02T03:58:03.225Z,101432.66
2023-04-02T04:00:37.462Z,101440.53
2023-04-02T04:03:14.215Z,101441.50
2023-04-02T04:05:49.622Z,101442.97
2023-04-02T04:08:20.427Z,101439.75
2023-04-02T04:10:53.398Z,101442.75
2023-04-02T04:13:29.052Z,101450.75
2023-04-02T04:16:01.156Z,101447.06
2023-04-02T04:18:37.807Z,101454.81
2023-04-02T04:21:15.492Z,101456.72
2023-04-02T04:23:51.454Z,101452.81
2023-04-02T04:26:24.692Z,101462.34
2023-04-02T04:28:59.693Z,101462.78
2023-04-02T04:31:34.076Z,101468.91
2023-04-02T04:34:09.384Z,101478.97
2023-04-02T04:36:53.945Z,101477.75
2023-04-02T04:39:29.644Z,101478.19
2023-04-02T04:42:00.911Z,101485.41
2023-04-02T04:44:40.606Z,101491.81
2023-04-02T04:47:13.083Z,101483.16
2023-04-02T04:49:46.227Z,101493.78
2023-04-02T04:52:20.478Z,101496.44
2023-04-02T04:54:48.575Z,101497.44
2023-04-02T04:57:35.980Z,101498.75
2023-04-02T05:00:13.998Z,101509.59
2023-04-02T05:02:47.693Z,101511.78
2023-04-02T05:05:22.896Z,101520.78
2023-04-02T05:07:54.005Z,101525.94
2023-04-02T05:10:31.568Z,101514.72
2023-04-02T05:13:05.164Z,101524.81
2023-04-02T05:15:37.137Z,101526.81
2023-04-02T05:18:19.015Z,101523.34
2023-04-02T05:20:52.178Z,101530.81
2023-04-02T05:23:24.211Z,101531.94
2023-04-02T05:25:55.979Z,101528.56
2023-04-02T05:28:31.056Z,101542.25
2023-04-02T05:31:03.179Z,101538.78
2023-04-02T05:33:33.057Z,101547.66
2023-04-02T05:36:05.327Z,101550.13
2023-04-02T05:38:36.440Z,101547.06
2023-04-02T05:41:08.960Z,101555.66
2023-04-02T05:43:40.306Z,101567.50
2023-04-02T05:46:17.362Z,101564.34
2023-04-02T05:48:49.169Z,101570.19
2023-04-02T05:51:22.472Z,101557.63
2023-04-02T05:53:56.003Z,101568.47
2023-04-02T05:56:27.082Z,101573.16
2023-04-02T05:59:00.828Z,101574.19
2023-04-02T06:01:39.123Z,101573.69
2023-04-02T06:04:15.909Z,101570.97
2023-04-02T06:06:54.069Z,101581.94
2023-04-02T06:09:30.189Z,101592.66
2023-04-02T06:12:13.433Z,101592.31
2023-04-02T06:14:41.332Z,101588.81
2023-04-02T06:17:12.767Z,101598.50
2023-04-02T06:19:40.739Z,101601.44
2023-04-02T06:22:18.863Z,101608.84
2023-04-02T06:24:48.409Z,101620.06
2023-04-02T06:27:22.694Z,101613.34
2023-04-02T06:29:52.872Z,101617.94
2023-04-02T06:32:24.277Z,101611.13
2023-04-02T06:34:52.195Z,101621.88
2023-04-02T06:37:28.517Z,101630.69
2023-04-02T06:39:56.419Z,101643.44
2023-04-02T06:42:28.523Z,101636.06
2023-04-02T06:44:56.580Z,101637.44
2023-04-02T06:47:31.412Z,101650.13
2023-04-02T06:50:05.794Z,101647.06
2023-04-02T06:52:39.724Z,101648.56
2023-04-02T06:55:28.016Z,101649.63
2023-04-02T06:57:56.158Z,101655.56
2023-04-02T07:00:29.865Z,101658.47
2023-04-02T07:03:00.382Z,101661.63
2023-04-02T07:05:28.163Z,101677.22
2023-04-02T07:07:57.219Z,101671.75
2023-04-02T07:10:25.219Z,101678.25
2023-04-02T07:12:52.979Z,101678.97
2023-04-02T07:15:20.704Z,101694.38
2023-04-02T07:17:48.824Z,101692.88
2023-04-02T07:20:28.510Z,101700.38
2023-04-02T07:22:58.293Z,101696.41
2023-04-02T07:25:28.192Z,101701.94
2023-04-02T07:27:57.153Z,101706.06
2023-04-02T07:30:24.950Z,101715.78
2023-04-02T07:32:52.847Z,101713.97
2023-04-02T07:35:20.725Z,101720.44
2023-04-02T07:37:48.481Z,101716.53
2023-04-02T07:40:21.966Z,101718.06
2023-04-02T07:42:50.125Z,101732.22
2023-04-02T07:45:18.106Z,101736.72
2023-04-02T07:47:46.211Z,101728.69
2023-04-02T07:50:14.244Z,101734.50
2023-04-02T07:52:43.169Z,101742.19
2023-04-02T07:55:12.632Z,101739.41
2023-04-02T07:57:48.717Z,101736.09
2023-04-02T08:00:17.517Z,101739.91
2023-04-02T08:02:45.389Z,101750.28
2023-04-02T08:05:13.549Z,101744.13
2023-04-02T08:07:41.598Z,101751.50
2023-04-02T08:10:11.229Z,101748.72
2023-04-02T08:12:39.451Z,101756.28
2023-04-02T08:15:11.042Z,101763.84
2023-04-02T08:17:39.097Z,101751.91
2023-04-02T08:20:10.480Z,101758.91
2023-04-02T08:22:38.316Z,101766.53
2023-04-02T08:25:07.121Z,101768.00
2023-04-02T08:27:34.868Z,101759.53
2023-04-02T08:30:02.584Z,101767.53
2023-04-02T08:32:31.681Z,101754.00
2023-04-02T08:34:59.476Z,101760.09
2023-04-02T08:37:28.076Z,101762.28
2023-04-02T08:39:55.789Z,101761.88
2023-04-02T08:42:30.906Z,101768.00
2023-04-02T08:45:24.214Z,101773.41
2023-04-02T08:47:57.575Z,101773.94
2023-04-02T08:50:31.592Z,101786.09
2023-04-02T08:52:59.961Z,101782.75
2023-04-02T08:55:37.000Z,101779.09
2023-04-02T08:58:18.055Z,101788.56
2023-04-02T09:00:49.862Z,101793.38
2023-04-02T09:03:22.675Z,101813.69
2023-04-02T09:05:53.422Z,101819.19
2023-04-02T09:08:24.509Z,101817.16
2023-04-02T09:10:55.932Z,101820.56
2023-04-02T09:13:25.655Z,101822.88
2023-04-02T09:15:59.648Z,101817.63
2023-04-02T09:18:31.158Z,101833.06
2023-04-02T09:20:59.034Z,101827.75
2023-04-02T09:23:29.093Z,101825.16
2023-04-02T09:26:04.136Z,101829.63
2023-04-02T09:28:32.588Z,101824.50
2023-04-02T09:31:14.690Z,101831.94
2023-04-02T09:33:45.282Z,101838.81
2023-04-02T09:36:35.937Z,101831.63
2023-04-02T09:39:08.229Z,101835.22
2023-04-02T09:41:37.452Z,101842.13
2023-04-02T09:44:30.486Z,101845.22
2023-04-02T09:47:03.711Z,101839.69
2023-04-02T09:49:34.008Z,101847.44
2023-04-02T09:52:21.645Z,101842.50
2023-04-02T09:55:17.756Z,101850.56
2023-04-02T09:57:46.597Z,101841.56
2023-04-02T10:00:31.332Z,101832.22
2023-04-02T10:03:06.397Z,101845.50
2023-04-02T10:08:09.646Z,101865.38
2023-04-02T10:10:42.936Z,101868.34
2023-04-02T10:13:20.607Z,101868.94
2023-04-02T10:15:52.088Z,101870.22
2023-04-02T10:18:28.372Z,101874.72
2023-04-02T10:21:00.433Z,101884.53
2023-04-02T10:23:31.163Z,101883.59
2023-04-02T10:26:08.879Z,101887.56
2023-04-02T10:28:48.995Z,101889.81
2023-04-02T10:31:25.446Z,101892.91
2023-04-02T10:34:02.482Z,101885.47
2023-04-02T10:36:46.756Z,101882.75
2023-04-02T10:39:19.592Z,101889.88
2023-04-02T10:41:54.427Z,101902.56
2023-04-02T10:44:33.522Z,101914.47
2023-04-02T10:47:10.423Z,101903.44
2023-04-02T10:49:43.599Z,101910.81
2023-04-02T10:52:21.196Z,101926.97
2023-04-02T10:54:51.769Z,101918.41
2023-04-02T10:57:34.752Z,101914.63
2023-04-02T11:00:15.954Z,101923.06
2023-04-02T11:02:50.372Z,101925.66
2023-04-02T11:05:23.818Z,101927.03
2023-04-02T11:08:01.888Z,101934.09
2023-04-02T11:10:33.593Z,101941.53
2023-04-02T11:13:08.530Z,101935.44
2023-04-02T11:15:37.824Z,101932.59
2023-04-02T11:18:06.128Z,101946.31
2023-04-02T11:21:07.585Z,101941.78
2023-04-02T11:23:57.479Z,101943.91
2023-04-02T11:26:47.434Z,101947.97
2023-04-02T11:29:28.169Z,101940.38
2023-04-02T11:32:28.855Z,101945.44
2023-04-02T11:35:25.009Z,101947.97
2023-04-02T11:37:54.414Z,101949.03
2023-04-02T11:40:52.892Z,101961.88
2023-04-02T11:43:52.554Z,101961.78
2023-04-02T11:46:40.462Z,101959.31
2023-04-02T11:49:51.046Z,101958.31
2023-04-02T11:52:25.836Z,101965.47
2023-04-02T11:55:18.574Z,101954.84
2023-04-02T11:58:05.473Z,101953.31
2023-04-02T12:01:15.802Z,101958.44
2023-04-02T12:04:08.689Z,101952.63
2023-04-02T12:06:52.400Z,101949.94
2023-04-02T12:09:23.628Z,101951.78
2023-04-02T12:11:52.608Z,101956.00
2023-04-02T12:14:45.629Z,101953.91
2023-04-02T12:17:28.914Z,101953.84
2023-04-02T12:19:58.383Z,101964.47
2023-04-02T12:22:28.840Z,101960.28
2023-04-02T12:25:00.002Z,101965.16
2023-04-02T12:27:29.531Z,101974.69
2023-04-02T12:30:13.697Z,101976.00
2023-04-02T12:32:41.914Z,101969.59
2023-04-02T12:35:28.169Z,101968.63
2023-04-02T12:37:57.091Z,101967.72
2023-04-02T12:40:26.130Z,101978.78
2023-04-02T12:42:54.085Z,101982.78
2023-04-02T12:45:27.270Z,101991.00
2023-04-02T12:47:58.268Z,101991.38
2023-04-02T12:50:26.193Z,101985.06
2023-04-02T12:52:58.263Z,101997.88
2023-04-02T12:55:28.197Z,101986.56
2023-04-02T12:57:57.488Z,101988.22
2023-04-02T13:00:33.360Z,101997.66
2023-04-02T13:03:16.284Z,101988.44
2023-04-02T13:05:47.828Z,101990.94
2023-04-02T13:08:18.795Z,101989.22
2023-04-02T13:10:47.187Z,101995.44
2023-04-02T13:13:19.691Z,101982.97
2023-04-02T13:16:02.586Z,101986.38
2023-04-02T13:18:33.290Z,101980.97
2023-04-02T13:21:03.009Z,101982.91
2023-04-02T13:23:37.335Z,101994.84
2023-04-02T13:26:15.828Z,101993.53
2023-04-02T13:28:43.729Z,101986.63
2023-04-02T13:31:16.584Z,101994.16
2023-04-02T13:33:44.368Z,102000.22
2023-04-02T13:36:15.141Z,101998.97
2023-04-02T13:38:43.247Z,101992.91
2023-04-02T13:41:22.403Z,102003.53
2023-04-02T13:43:51.053Z,101995.06
2023-04-02T13:46:23.408Z,102003.31
2023-04-02T13:48:52.345Z,101991.94
2023-04-02T13:51:22.792Z,102002.03
2023-04-02T13:53:55.446Z,101993.94
2023-04-02T13:56:24.608Z,101998.41
2023-04-02T13:58:52.689Z,102010.06
2023-04-02T14:01:25.240Z,102002.94
2023-04-02T14:03:54.364Z,102013.47
2023-04-02T14:06:31.861Z,102004.38
2023-04-02T14:09:04.056Z,102000.25
2023-04-02T14:11:44.405Z,101994.94
2023-04-02T14:14:27.044Z,101988.78
2023-04-02T14:17:07.650Z,101987.66
2023-04-02T14:19:50.976Z,101991.94
2023-04-02T14:22:34.469Z,102001.94
2023-04-02T14:25:11.608Z,102009.03
2023-04-02T14:27:45.978Z,102002.19
2023-04-02T14:30:21.194Z,102010.25
2023-04-02T14:32:59.023Z,102007.44
2023-04-02T14:35:32.279Z,102016.13
2023-04-02T14:38:10.060Z,102013.06
2023-04-02T14:40:46.231Z,102024.63
2023-04-02T14:43:21.121Z,102016.09
2023-04-02T14:45:58.469Z,102004.47
2023-04-02T14:48:44.591Z,102014.16
2023-04-02T14:51:18.408Z,102011.03
2023-04-02T14:53:53.790Z,102015.47
2023-04-02T14:56:24.855Z,102017.03
2023-04-02T14:59:10.132Z,102017.53
2023-04-02T15:01:40.863Z,102017.97
2023-04-02T15:04:15.461Z,102021.69
2023-04-02T15:06:46.581Z,102014.75
2023-04-02T15:09:19.913Z,102025.66
2023-04-02T15:11:49.765Z,102033.03
2023-04-02T15:14:22.160Z,102030.41
2023-04-02T15:16:49.904Z,102022.63
2023-04-02T15:19:20.242Z,102021.75
2023-04-02T15:22:08.767Z,102023.47
2023-04-02T15:24:46.204Z,102027.56
2023-04-02T15:27:25.497Z,102026.88
2023-04-02T15:30:01.353Z,102033.44
2023-04-02T15:32:36.708Z,102031.47
2023-04-02T15:35:18.822Z,102038.25
2023-04-02T15:37:58.311Z,102029.97
2023-04-02T15:40:48.938Z,102012.94
2023-04-02T15:43:23.160Z,102033.22
2023-04-02T15:45:59.087Z,102032.81
2023-04-02T15:49:05.042Z,102044.28
2023-04-02T15:52:06.548Z,102043.50
2023-04-02T15:54:53.269Z,102045.34
2023-04-02T15:57:41.062Z,102051.81
2023-04-02T16:00:28.056Z,102057.53
2023-04-02T16:03:17.660Z,102064.03
2023-04-02T16:05:56.869Z,102049.63
2023-04-02T16:08:39.591Z,102043.38
2023-04-02T16:11:11.882Z,102045.06
2023-04-02T16:13:40.888Z,102053.41
2023-04-02T16:16:12.355Z,102056.66
2023-04-02T16:18:47.676Z,102048.97
2023-04-02T16:21:20.587Z,102057.22
2023-04-02T16:23:51.105Z,102059.81
2023-04-02T16:26:30.038Z,102057.00
2023-04-02T16:29:10.002Z,102053.19
2023-04-02T16:31:49.749Z,102052.22
2023-04-02T16:34:30.365Z,102049.00
2023-04-02T16:37:04.492Z,102051.16
2023-04-02T16:39:39.197Z,102051.22
2023-04-02T16:42:16.770Z,102056.22
2023-04-02T16:44:56.453Z,102054.13
2023-04-02T16:47:45.338Z,102060.56
2023-04-02T16:50:20.447Z,102064.03
2023-04-02T16:52:57.214Z,102065.16
2023-04-02T16:55:42.149Z,102066.16
2023-04-02T16:58:29.167Z,102069.28
2023-04-02T17:01:01.824Z,102075.47
2023-04-02T17:03:44.733Z,102073.03
2023-04-02T17:06:21.217Z,102070.09
2023-04-02T17:08:57.848Z,102074.84
2023-04-02T17:11:37.856Z,102077.06
2023-04-02T17:14:07.839Z,102072.38
2023-04-02T17:16:43.027Z,102078.34
2023-04-02T17:19:12.660Z,102077.56
2023-04-02T17:21:43.201Z,102088.81
2023-04-02T17:24:20.629Z,102090.81
2023-04-02T17:26:54.376Z,102086.72
2023-04-02T17:29:26.724Z,102085.56
2023-04-02T17:32:00.881Z,102087.81
2023-04-02T17:34:29.508Z,102094.16
2023-04-02T17:37:05.653Z,102095.50
2023-04-02T17:39:41.949Z,102097.41
2023-04-02T17:42:21.894Z,102105.09
2023-04-02T17:45:03.413Z,102101.69
2023-04-02T17:47:44.451Z,102115.28
2023-04-02T17:50:38.315Z,102114.59
2023-04-02T17:53:19.122Z,102111.88
2023-04-02T17:56:00.693Z,102112.28
2023-04-02T17:58:48.067Z,102122.09
2023-04-02T18:01:23.288Z,102116.09
2023-04-02T18:04:05.689Z,102115.41
2023-04-02T18:06:40.555Z,102123.56
2023-04-02T18:09:25.145Z,102126.06
2023-04-02T18:12:03.977Z,102133.41
2023-04-02T18:14:47.448Z,102128.16
2023-04-02T18:17:22.260Z,102141.00
2023-04-02T18:19:55.125Z,102144.06
2023-04-02T18:22:31.611Z,102137.25
2023-04-02T18:25:33.692Z,102146.69
2023-04-02T18:28:16.955Z,102153.41
2023-04-02T18:30:51.175Z,102151.09
2023-04-02T18:33:30.356Z,102157.84
2023-04-02T18:36:06.249Z,102164.13
2023-04-02T18:38:43.470Z,102165.88
2023-04-02T18:41:27.828Z,102164.06
2023-04-02T18:44:08.786Z,102170.31
2023-04-02T18:46:44.480Z,102171.66
2023-04-02T18:49:33.712Z,102170.31
2023-04-02T18:52:03.384Z,102175.63
2023-04-02T18:54:35.606Z,102188.31
2023-04-02T18:57:12.364Z,102183.84
2023-04-02T18:59:45.799Z,102185.38
2023-04-02T19:02:32.647Z,102188.66
2023-04-02T19:05:04.987Z,102188.97
2023-04-02T19:07:36.639Z,102198.22
2023-04-02T19:10:14.882Z,102200.34
2023-04-02T19:12:42.580Z,102193.88
2023-04-02T19:15:17.329Z,102198.72
2023-04-02T19:17:54.633Z,102202.38
2023-04-02T19:20:34.555Z,102208.25
2023-04-02T19:23:14.975Z,102213.50
2023-04-02T19:25:58.781Z,102220.25
2023-04-02T19:28:32.477Z,102222.59
2023-04-02T19:31:15.588Z,102219.88
2023-04-02T19:33:50.360Z,102234.84
2023-04-02T19:36:44.407Z,102228.22
2023-04-02T19:39:35.882Z,102234.03
2023-04-02T19:42:12.993Z,102243.94
2023-04-02T19:44:45.739Z,102240.53
2023-04-02T19:47:14.475Z,102250.06
2023-04-02T19:49:43.646Z,102251.38
2023-04-02T19:52:11.454Z,102247.19
2023-04-02T19:54:39.664Z,102252.34
2023-04-02T19:57:07.512Z,102261.06
2023-04-02T19:59:35.608Z,102257.06
2023-04-02T20:02:06.612Z,102255.31
2023-04-02T20:04:34.533Z,102270.72
2023-04-02T20:07:03.733Z,102271.13
2023-04-02T20:09:31.588Z,102273.88
2023-04-02T20:11:59.606Z,102273.19
2023-04-02T20:14:27.329Z,102275.75
2023-04-02T20:16:55.134Z,102274.69
2023-04-02T20:19:25.283Z,102267.59
2023-04-02T20:21:53.066Z,102267.16
2023-04-02T20:24:22.136Z,102271.44
2023-04-02T20:26:49.827Z,102269.69
2023-04-02T20:29:17.574Z,102275.78
2023-04-02T20:31:45.406Z,102280.03
2023-04-02T20:34:13.411Z,102275.94
2023-04-02T20:36:41.617Z,102279.63
2023-04-02T20:39:10.688Z,102284.47
2023-04-02T20:41:39.769Z,102280.69
2023-04-02T20:44:07.551Z,102284.94
2023-04-02T20:46:35.291Z,102285.00
2023-04-02T20:49:03.187Z,102289.13
2023-04-02T20:51:31.001Z,102296.13
2023-04-02T20:53:58.952Z,102288.38
2023-04-02T20:56:26.801Z,102286.84
2023-04-02T20:58:55.993Z,102291.53
2023-04-02T21:01:25.214Z,102299.59
2023-04-02T21:03:56.797Z,102298.47
2023-04-02T21:06:26.587Z,102296.19
2023-04-02T21:08:54.767Z,102291.53
2023-04-02T21:11:23.129Z,102288.91
2023-04-02T21:13:51.759Z,102294.88
2023-04-02T21:16:22.534Z,102294.13
2023-04-02T21:18:52.757Z,102301.16
2023-04-02T21:21:21.617Z,102297.91
2023-04-02T21:23:54.591Z,102299.59
2023-04-02T21:26:22.510Z,102292.56
2023-04-02T21:28:50.365Z,102294.25
2023-04-02T21:31:21.143Z,102298.00
2023-04-02T21:33:50.845Z,102302.59
2023-04-02T21:36:20.686Z,102296.50
2023-04-02T21:38:50.566Z,102299.13
2023-04-02T21:41:21.302Z,102290.50
2023-04-02T21:43:49.647Z,102295.66
2023-04-02T21:46:18.351Z,102294.06
2023-04-02T21:48:48.256Z,102294.84
2023-04-02T21:51:18.088Z,102292.06
2023-04-02T21:53:46.659Z,102298.19
2023-04-02T21:56:16.621Z,102298.41
2023-04-02T21:58:45.002Z,102294.06
2023-04-02T22:01:26.064Z,102298.53
2023-04-02T22:03:56.954Z,102294.94
2023-04-02T22:06:26.325Z,102294.94
2023-04-02T22:08:56.192Z,102289.66
2023-04-02T22:11:25.991Z,102297.03
2023-04-02T22:13:53.981Z,102296.84
2023-04-02T22:16:23.417Z,102293.13
2023-04-02T22:18:53.119Z,102287.44
2023-04-02T22:21:22.739Z,102291.63
2023-04-02T22:23:51.165Z,102290.22
2023-04-02T22:26:20.833Z,102285.50
2023-04-02T22:28:48.759Z,102287.28
2023-04-02T22:31:19.000Z,102284.81
2023-04-02T22:33:48.096Z,102277.69
2023-04-02T22:36:17.442Z,102277.50
2023-04-02T22:38:46.965Z,102279.03
2023-04-02T22:41:16.203Z,102270.88
2023-04-02T22:43:45.518Z,102275.78
2023-04-02T22:46:15.367Z,102271.78
2023-04-02T22:48:43.864Z,102275.84
2023-04-02T22:51:14.117Z,102280.03
2023-04-02T22:53:43.045Z,102277.44
2023-04-02T22:56:14.477Z,102272.97
2023-04-02T22:58:42.735Z,102263.44
2023-04-02T23:01:14.835Z,102274.34
2023-04-02T23:03:42.619Z,102269.69
2023-04-02T23:06:12.982Z,102267.78
2023-04-02T23:08:40.978Z,102263.13
2023-04-02T23:11:11.124Z,102271.50
2023-04-02T23:13:40.864Z,102268.91
2023-04-02T23:16:11.791Z,102273.53
2023-04-02T23:18:40.702Z,102267.97
2023-04-02T23:21:09.042Z,102273.19
2023-04-02T23:23:36.948Z,102270.59
2023-04-02T23:26:07.063Z,102257.56
2023-04-02T23:28:35.979Z,102259.16
2023-04-02T23:31:06.900Z,102267.72
2023-04-02T23:33:34.989Z,102259.09
2023-04-02T23:36:09.031Z,102257.09
2023-04-02T23:38:37.122Z,102256.00
2023-04-02T23:41:04.912Z,102246.59
2023-04-02T23:43:32.733Z,102243.28
2023-04-02T23:46:00.484Z,102250.28
2023-04-02T23:48:29.633Z,102246.16
2023-04-02T23:50:57.351Z,102247.28
2023-04-02T23:53:25.290Z,102247.53
2023-04-02T23:55:53.065Z,102248.25
2023-04-02T23:58:20.896Z,102242.84
